メインページ
METAR-TAF:

METAR-TAF

空港 :

チタ, ロシア

カダラ空港

緯度: 52-05N, 経度: 113-29E, 海抜: 685m

現時点の気象観測

当レポートは18分前の12:00(UTC)に作成
北西の風 4kt
気温 -18°C
湿度 65%
気圧 1018 hPa
視程10km以上

METAR: UIAA 241200Z 32002MPS 9999 NSC M18/M23 Q1018 R29/810165 NOSIG RMK QFE705/0940

時間: 21:18 (12:18 UTC)

予報

当レポートは1時間18分前の11:00(UTC)に作成
予報は24日の 12時(UTC)から 25日の 12時(UTC)まで有効
北東の風 6kt
視程: 3100m
高度500ftの雲は散在している
靄, 煙
25日の 02時(UTC)から 25日の 04時(UTC)まで徐々に
視程: 2500m
高度1400ftの千切れ雲あり, 積乱雲.
弱いにわか雪, 靄

TAF: UIAA 241100Z 2412/2512 04003MPS 3100 BR FU SCT005 BECMG 2502/2504 2500 -SHSN BR BKN014CB

4,000以上の空港の気象観測と天気予報(METAR報とTAF報)

利用可能な観測所は地図上に黄色い丸と赤い丸で示す。

丸の上にカーソルを重ねると観測所名を参照できる。

次にクリックすると気象観測と天気予報を参照できる。

マップの切り替え:黒色「×」印の緑ボタンをクリックして拡大、「-」印の緑ボタンをクリックして縮小、緑色の三角印をクリックして隣りの地図に切り替え


METAR-TAF: